sensor_id;sensor_type;location;lat;lon;timestamp;temperature;humidity
59973;DHT22;55298;-36.624;-64.282;2023-06-22T00:02:26;13.10;99.90
59973;DHT22;55298;-36.624;-64.282;2023-06-22T00:04:54;13.10;99.90
59973;DHT22;55298;-36.624;-64.282;2023-06-22T00:07:22;13.10;99.90
59973;DHT22;55298;-36.624;-64.282;2023-06-22T00:09:50;13.20;99.90
59973;DHT22;55298;-36.624;-64.282;2023-06-22T00:12:18;13.20;99.90
59973;DHT22;55298;-36.624;-64.282;2023-06-22T00:14:49;12.50;99.90
59973;DHT22;55298;-36.624;-64.282;2023-06-22T00:17:16;13.10;99.90
59973;DHT22;55298;-36.624;-64.282;2023-06-22T00:19:51;13.10;99.90
59973;DHT22;55298;-36.624;-64.282;2023-06-22T00:22:25;13.10;99.90
59973;DHT22;55298;-36.624;-64.282;2023-06-22T00:25:06;13.10;99.90
59973;DHT22;55298;-36.624;-64.282;2023-06-22T00:27:37;13.10;99.90
59973;DHT22;55298;-36.624;-64.282;2023-06-22T00:30:06;13.10;99.90
59973;DHT22;55298;-36.624;-64.282;2023-06-22T00:32:33;14.10;99.90
59973;DHT22;55298;-36.624;-64.282;2023-06-22T00:35:01;13.00;99.90
59973;DHT22;55298;-36.624;-64.282;2023-06-22T00:37:32;13.00;99.90
59973;DHT22;55298;-36.624;-64.282;2023-06-22T00:40:03;13.10;99.90
59973;DHT22;55298;-36.624;-64.282;2023-06-22T00:42:34;13.00;99.90
59973;DHT22;55298;-36.624;-64.282;2023-06-22T00:45:02;13.10;99.90
59973;DHT22;55298;-36.624;-64.282;2023-06-22T00:49:55;12.90;99.90
59973;DHT22;55298;-36.624;-64.282;2023-06-22T00:52:24;12.90;99.90
59973;DHT22;55298;-36.624;-64.282;2023-06-22T00:54:57;12.90;99.90
59973;DHT22;55298;-36.624;-64.282;2023-06-22T00:57:28;12.90;99.90
59973;DHT22;55298;-36.624;-64.282;2023-06-22T01:00:00;12.90;99.90
59973;DHT22;55298;-36.624;-64.282;2023-06-22T01:02:28;12.90;99.90
59973;DHT22;55298;-36.624;-64.282;2023-06-22T01:04:56;12.90;99.90
59973;DHT22;55298;-36.624;-64.282;2023-06-22T01:07:35;12.90;99.90
59973;DHT22;55298;-36.624;-64.282;2023-06-22T01:10:22;12.90;99.90
59973;DHT22;55298;-36.624;-64.282;2023-06-22T01:12:51;12.90;99.90
59973;DHT22;55298;-36.624;-64.282;2023-06-22T01:15:29;12.90;99.90
59973;DHT22;55298;-36.624;-64.282;2023-06-22T01:17:58;13.60;99.90
59973;DHT22;55298;-36.624;-64.282;2023-06-22T01:20:28;12.90;99.90
59973;DHT22;55298;-36.624;-64.282;2023-06-22T01:23:09;12.90;99.90
59973;DHT22;55298;-36.624;-64.282;2023-06-22T01:25:47;12.90;99.90
59973;DHT22;55298;-36.624;-64.282;2023-06-22T01:31:20;13.00;99.90
59973;DHT22;55298;-36.624;-64.282;2023-06-22T01:36:22;12.90;99.90
59973;DHT22;55298;-36.624;-64.282;2023-06-22T01:38:51;12.90;99.90
59973;DHT22;55298;-36.624;-64.282;2023-06-22T01:41:21;12.90;99.90
59973;DHT22;55298;-36.624;-64.282;2023-06-22T01:43:49;12.90;99.90
59973;DHT22;55298;-36.624;-64.282;2023-06-22T01:46:23;12.80;99.90
59973;DHT22;55298;-36.624;-64.282;2023-06-22T01:48:53;12.70;99.90
59973;DHT22;55298;-36.624;-64.282;2023-06-22T01:51:21;12.70;99.90
59973;DHT22;55298;-36.624;-64.282;2023-06-22T01:53:49;12.70;99.90
59973;DHT22;55298;-36.624;-64.282;2023-06-22T01:56:17;14.20;99.90
59973;DHT22;55298;-36.624;-64.282;2023-06-22T01:59:04;12.70;99.90
59973;DHT22;55298;-36.624;-64.282;2023-06-22T02:01:42;12.70;99.90
59973;DHT22;55298;-36.624;-64.282;2023-06-22T02:04:21;12.70;99.90
59973;DHT22;55298;-36.624;-64.282;2023-06-22T02:06:55;12.50;99.90
59973;DHT22;55298;-36.624;-64.282;2023-06-22T02:09:26;12.80;99.90
59973;DHT22;55298;-36.624;-64.282;2023-06-22T02:11:59;12.70;99.90
59973;DHT22;55298;-36.624;-64.282;2023-06-22T02:14:29;13.30;99.90
59973;DHT22;55298;-36.624;-64.282;2023-06-22T02:16:58;12.70;99.90
59973;DHT22;55298;-36.624;-64.282;2023-06-22T02:19:28;12.70;99.90
59973;DHT22;55298;-36.624;-64.282;2023-06-22T02:22:01;12.40;99.90
59973;DHT22;55298;-36.624;-64.282;2023-06-22T02:24:35;12.40;99.90
59973;DHT22;55298;-36.624;-64.282;2023-06-22T02:27:05;12.40;99.90
59973;DHT22;55298;-36.624;-64.282;2023-06-22T02:29:36;12.40;99.90
59973;DHT22;55298;-36.624;-64.282;2023-06-22T02:32:04;12.20;99.90
59973;DHT22;55298;-36.624;-64.282;2023-06-22T02:34:34;12.20;99.90
59973;DHT22;55298;-36.624;-64.282;2023-06-22T02:37:18;12.00;99.90
59973;DHT22;55298;-36.624;-64.282;2023-06-22T02:39:56;12.10;99.90
59973;DHT22;55298;-36.624;-64.282;2023-06-22T02:42:37;12.00;99.90
59973;DHT22;55298;-36.624;-64.282;2023-06-22T02:45:06;12.00;99.90
59973;DHT22;55298;-36.624;-64.282;2023-06-22T02:47:34;11.90;99.90
59973;DHT22;55298;-36.624;-64.282;2023-06-22T02:50:02;11.80;99.90
59973;DHT22;55298;-36.624;-64.282;2023-06-22T02:52:30;11.30;99.90
59973;DHT22;55298;-36.624;-64.282;2023-06-22T02:55:01;11.70;99.90
59973;DHT22;55298;-36.624;-64.282;2023-06-22T02:57:30;11.60;99.90
59973;DHT22;55298;-36.624;-64.282;2023-06-22T02:59:58;11.50;99.90
59973;DHT22;55298;-36.624;-64.282;2023-06-22T03:02:29;11.50;99.90
59973;DHT22;55298;-36.624;-64.282;2023-06-22T03:04:57;11.50;99.90
59973;DHT22;55298;-36.624;-64.282;2023-06-22T03:07:25;11.40;99.90
59973;DHT22;55298;-36.624;-64.282;2023-06-22T03:09:52;11.40;99.90
59973;DHT22;55298;-36.624;-64.282;2023-06-22T03:12:22;11.20;99.90
59973;DHT22;55298;-36.624;-64.282;2023-06-22T03:14:50;11.30;99.90
59973;DHT22;55298;-36.624;-64.282;2023-06-22T03:17:18;11.30;99.90
59973;DHT22;55298;-36.624;-64.282;2023-06-22T03:19:46;11.20;99.90
59973;DHT22;55298;-36.624;-64.282;2023-06-22T03:22:14;11.10;99.90
59973;DHT22;55298;-36.624;-64.282;2023-06-22T03:24:42;11.70;99.90
59973;DHT22;55298;-36.624;-64.282;2023-06-22T03:27:10;11.00;99.90
59973;DHT22;55298;-36.624;-64.282;2023-06-22T03:29:38;11.10;99.90
59973;DHT22;55298;-36.624;-64.282;2023-06-22T03:32:06;11.10;99.90
59973;DHT22;55298;-36.624;-64.282;2023-06-22T03:34:35;11.00;99.90
59973;DHT22;55298;-36.624;-64.282;2023-06-22T03:37:03;11.00;99.90
59973;DHT22;55298;-36.624;-64.282;2023-06-22T03:39:32;10.90;99.90
59973;DHT22;55298;-36.624;-64.282;2023-06-22T03:42:03;10.90;99.90
59973;DHT22;55298;-36.624;-64.282;2023-06-22T03:44:31;11.30;99.90
59973;DHT22;55298;-36.624;-64.282;2023-06-22T03:46:59;10.80;99.90
59973;DHT22;55298;-36.624;-64.282;2023-06-22T03:49:29;10.90;99.90
59973;DHT22;55298;-36.624;-64.282;2023-06-22T03:51:56;10.80;99.90
59973;DHT22;55298;-36.624;-64.282;2023-06-22T03:54:24;10.80;99.90
59973;DHT22;55298;-36.624;-64.282;2023-06-22T03:56:52;10.80;99.90
59973;DHT22;55298;-36.624;-64.282;2023-06-22T03:59:25;10.70;99.90
59973;DHT22;55298;-36.624;-64.282;2023-06-22T04:01:56;10.70;99.90
59973;DHT22;55298;-36.624;-64.282;2023-06-22T04:04:24;10.80;99.90
59973;DHT22;55298;-36.624;-64.282;2023-06-22T04:06:54;10.70;99.90
59973;DHT22;55298;-36.624;-64.282;2023-06-22T04:09:25;10.70;99.90
59973;DHT22;55298;-36.624;-64.282;2023-06-22T04:11:53;10.60;99.90
59973;DHT22;55298;-36.624;-64.282;2023-06-22T04:14:24;9.20;99.90
59973;DHT22;55298;-36.624;-64.282;2023-06-22T04:16:57;10.60;99.90
59973;DHT22;55298;-36.624;-64.282;2023-06-22T04:19:25;10.60;99.90
59973;DHT22;55298;-36.624;-64.282;2023-06-22T04:21:53;10.50;99.90
59973;DHT22;55298;-36.624;-64.282;2023-06-22T04:24:21;10.50;99.90
59973;DHT22;55298;-36.624;-64.282;2023-06-22T04:26:48;10.50;99.90
59973;DHT22;55298;-36.624;-64.282;2023-06-22T04:31:58;10.40;99.90
59973;DHT22;55298;-36.624;-64.282;2023-06-22T04:34:33;10.40;99.90
59973;DHT22;55298;-36.624;-64.282;2023-06-22T04:37:02;10.40;99.90
59973;DHT22;55298;-36.624;-64.282;2023-06-22T04:39:31;10.40;99.90
59973;DHT22;55298;-36.624;-64.282;2023-06-22T04:41:59;13.00;99.90
59973;DHT22;55298;-36.624;-64.282;2023-06-22T04:44:27;10.30;99.90
59973;DHT22;55298;-36.624;-64.282;2023-06-22T04:46:57;11.10;99.90
59973;DHT22;55298;-36.624;-64.282;2023-06-22T04:49:30;10.60;99.90
59973;DHT22;55298;-36.624;-64.282;2023-06-22T04:52:06;10.70;99.90
59973;DHT22;55298;-36.624;-64.282;2023-06-22T04:54:36;10.50;99.90
59973;DHT22;55298;-36.624;-64.282;2023-06-22T04:57:06;10.40;99.90
59973;DHT22;55298;-36.624;-64.282;2023-06-22T04:59:38;10.40;99.90
59973;DHT22;55298;-36.624;-64.282;2023-06-22T05:02:08;10.50;99.90
59973;DHT22;55298;-36.624;-64.282;2023-06-22T05:04:37;10.50;99.90
59973;DHT22;55298;-36.624;-64.282;2023-06-22T05:07:06;11.00;99.90
59973;DHT22;55298;-36.624;-64.282;2023-06-22T05:09:34;11.70;99.90
59973;DHT22;55298;-36.624;-64.282;2023-06-22T05:12:05;12.90;99.90
59973;DHT22;55298;-36.624;-64.282;2023-06-22T05:14:34;10.50;99.90
59973;DHT22;55298;-36.624;-64.282;2023-06-22T05:17:07;10.90;99.90
59973;DHT22;55298;-36.624;-64.282;2023-06-22T05:19:40;10.60;99.90
59973;DHT22;55298;-36.624;-64.282;2023-06-22T05:22:12;10.60;99.90
59973;DHT22;55298;-36.624;-64.282;2023-06-22T05:24:40;10.70;99.90
59973;DHT22;55298;-36.624;-64.282;2023-06-22T05:27:08;10.80;99.90
59973;DHT22;55298;-36.624;-64.282;2023-06-22T05:29:38;10.90;99.90
59973;DHT22;55298;-36.624;-64.282;2023-06-22T05:32:06;10.90;99.90
59973;DHT22;55298;-36.624;-64.282;2023-06-22T05:34:34;11.00;99.90
59973;DHT22;55298;-36.624;-64.282;2023-06-22T05:37:04;11.00;99.90
59973;DHT22;55298;-36.624;-64.282;2023-06-22T05:39:32;11.00;99.90
59973;DHT22;55298;-36.624;-64.282;2023-06-22T05:42:01;10.90;99.90
59973;DHT22;55298;-36.624;-64.282;2023-06-22T05:44:28;10.90;99.90
59973;DHT22;55298;-36.624;-64.282;2023-06-22T05:49:25;10.80;99.90
59973;DHT22;55298;-36.624;-64.282;2023-06-22T05:51:59;10.80;99.90
59973;DHT22;55298;-36.624;-64.282;2023-06-22T05:54:29;10.80;99.90
59973;DHT22;55298;-36.624;-64.282;2023-06-22T05:57:00;10.90;99.90
59973;DHT22;55298;-36.624;-64.282;2023-06-22T05:59:31;11.00;99.90
59973;DHT22;55298;-36.624;-64.282;2023-06-22T06:01:59;9.50;99.90
59973;DHT22;55298;-36.624;-64.282;2023-06-22T06:04:27;11.10;99.90
59973;DHT22;55298;-36.624;-64.282;2023-06-22T06:06:57;11.10;99.90
59973;DHT22;55298;-36.624;-64.282;2023-06-22T06:09:26;11.20;99.90
59973;DHT22;55298;-36.624;-64.282;2023-06-22T06:11:54;10.50;99.90
59973;DHT22;55298;-36.624;-64.282;2023-06-22T06:14:22;11.20;99.90
59973;DHT22;55298;-36.624;-64.282;2023-06-22T06:16:50;11.40;99.90
59973;DHT22;55298;-36.624;-64.282;2023-06-22T06:19:18;11.40;99.90
59973;DHT22;55298;-36.624;-64.282;2023-06-22T06:21:46;11.50;99.90
59973;DHT22;55298;-36.624;-64.282;2023-06-22T06:24:15;11.40;99.90
59973;DHT22;55298;-36.624;-64.282;2023-06-22T06:26:43;11.40;99.90
59973;DHT22;55298;-36.624;-64.282;2023-06-22T06:31:39;11.50;99.90
59973;DHT22;55298;-36.624;-64.282;2023-06-22T06:34:07;11.60;99.90
59973;DHT22;55298;-36.624;-64.282;2023-06-22T06:36:35;11.60;99.90
59973;DHT22;55298;-36.624;-64.282;2023-06-22T06:39:04;13.80;99.90
59973;DHT22;55298;-36.624;-64.282;2023-06-22T06:41:32;11.80;99.90
59973;DHT22;55298;-36.624;-64.282;2023-06-22T06:44:00;14.20;99.90
59973;DHT22;55298;-36.624;-64.282;2023-06-22T06:46:28;11.70;99.90
59973;DHT22;55298;-36.624;-64.282;2023-06-22T06:48:56;11.80;99.90
59973;DHT22;55298;-36.624;-64.282;2023-06-22T06:51:24;11.80;99.90
59973;DHT22;55298;-36.624;-64.282;2023-06-22T06:53:52;11.70;99.90
59973;DHT22;55298;-36.624;-64.282;2023-06-22T06:56:20;13.00;99.90
59973;DHT22;55298;-36.624;-64.282;2023-06-22T06:58:49;13.60;99.90
59973;DHT22;55298;-36.624;-64.282;2023-06-22T07:01:19;11.60;99.90
59973;DHT22;55298;-36.624;-64.282;2023-06-22T07:03:47;11.40;99.90
59973;DHT22;55298;-36.624;-64.282;2023-06-22T07:06:14;11.40;99.90
59973;DHT22;55298;-36.624;-64.282;2023-06-22T07:09:09;11.40;99.90
59973;DHT22;55298;-36.624;-64.282;2023-06-22T07:11:58;11.30;99.90
59973;DHT22;55298;-36.624;-64.282;2023-06-22T07:14:52;11.30;99.90
59973;DHT22;55298;-36.624;-64.282;2023-06-22T07:17:26;11.30;99.90
59973;DHT22;55298;-36.624;-64.282;2023-06-22T07:20:05;11.20;99.90
59973;DHT22;55298;-36.624;-64.282;2023-06-22T07:22:57;11.20;99.90
59973;DHT22;55298;-36.624;-64.282;2023-06-22T07:28:12;11.10;99.90
59973;DHT22;55298;-36.624;-64.282;2023-06-22T07:33:22;11.10;99.90
59973;DHT22;55298;-36.624;-64.282;2023-06-22T07:36:13;9.70;99.90
59973;DHT22;55298;-36.624;-64.282;2023-06-22T07:38:45;13.00;99.90
59973;DHT22;55298;-36.624;-64.282;2023-06-22T07:44:00;10.90;99.90
59973;DHT22;55298;-36.624;-64.282;2023-06-22T07:46:54;10.80;99.90
59973;DHT22;55298;-36.624;-64.282;2023-06-22T07:49:25;10.80;99.90
59973;DHT22;55298;-36.624;-64.282;2023-06-22T07:51:59;10.80;99.90
59973;DHT22;55298;-36.624;-64.282;2023-06-22T07:55:21;10.80;99.90
59973;DHT22;55298;-36.624;-64.282;2023-06-22T07:57:56;10.80;99.90
59973;DHT22;55298;-36.624;-64.282;2023-06-22T08:00:48;10.80;99.90
59973;DHT22;55298;-36.624;-64.282;2023-06-22T08:03:20;10.80;99.90
59973;DHT22;55298;-36.624;-64.282;2023-06-22T08:05:54;10.70;99.90
59973;DHT22;55298;-36.624;-64.282;2023-06-22T08:08:26;10.70;99.90
59973;DHT22;55298;-36.624;-64.282;2023-06-22T08:13:35;10.70;99.90
59973;DHT22;55298;-36.624;-64.282;2023-06-22T08:16:09;10.60;99.90
59973;DHT22;55298;-36.624;-64.282;2023-06-22T08:21:06;10.60;99.90
59973;DHT22;55298;-36.624;-64.282;2023-06-22T08:23:35;10.60;99.90
59973;DHT22;55298;-36.624;-64.282;2023-06-22T08:26:08;10.60;99.90
59973;DHT22;55298;-36.624;-64.282;2023-06-22T08:28:37;10.50;99.90
59973;DHT22;55298;-36.624;-64.282;2023-06-22T08:33:35;10.60;99.90
59973;DHT22;55298;-36.624;-64.282;2023-06-22T08:36:03;10.70;99.90
59973;DHT22;55298;-36.624;-64.282;2023-06-22T08:38:32;10.60;99.90
59973;DHT22;55298;-36.624;-64.282;2023-06-22T08:41:03;10.60;99.90
59973;DHT22;55298;-36.624;-64.282;2023-06-22T08:43:34;10.60;99.90
59973;DHT22;55298;-36.624;-64.282;2023-06-22T08:46:06;10.60;99.90
59973;DHT22;55298;-36.624;-64.282;2023-06-22T08:48:36;10.60;99.90
59973;DHT22;55298;-36.624;-64.282;2023-06-22T08:51:10;10.60;99.90
59973;DHT22;55298;-36.624;-64.282;2023-06-22T08:53:39;8.80;99.90
59973;DHT22;55298;-36.624;-64.282;2023-06-22T08:56:07;10.60;99.90
59973;DHT22;55298;-36.624;-64.282;2023-06-22T08:58:36;10.60;99.90
59973;DHT22;55298;-36.624;-64.282;2023-06-22T09:01:03;10.60;99.90
59973;DHT22;55298;-36.624;-64.282;2023-06-22T09:03:32;10.60;99.90
59973;DHT22;55298;-36.624;-64.282;2023-06-22T09:06:04;10.60;99.90
59973;DHT22;55298;-36.624;-64.282;2023-06-22T09:08:33;10.60;99.90
59973;DHT22;55298;-36.624;-64.282;2023-06-22T09:13:33;10.70;99.90
59973;DHT22;55298;-36.624;-64.282;2023-06-22T09:16:02;10.70;99.90
59973;DHT22;55298;-36.624;-64.282;2023-06-22T09:18:30;10.70;99.90
59973;DHT22;55298;-36.624;-64.282;2023-06-22T09:21:02;10.70;99.90
59973;DHT22;55298;-36.624;-64.282;2023-06-22T09:23:38;10.70;99.90
59973;DHT22;55298;-36.624;-64.282;2023-06-22T09:26:13;10.70;99.90
59973;DHT22;55298;-36.624;-64.282;2023-06-22T09:28:41;10.70;99.90
59973;DHT22;55298;-36.624;-64.282;2023-06-22T09:31:20;11.00;99.90
59973;DHT22;55298;-36.624;-64.282;2023-06-22T09:33:54;10.70;99.90
59973;DHT22;55298;-36.624;-64.282;2023-06-22T09:36:23;13.30;99.90
59973;DHT22;55298;-36.624;-64.282;2023-06-22T09:38:52;10.70;99.90
59973;DHT22;55298;-36.624;-64.282;2023-06-22T09:41:24;10.70;99.90
59973;DHT22;55298;-36.624;-64.282;2023-06-22T09:43:54;10.70;99.90
59973;DHT22;55298;-36.624;-64.282;2023-06-22T09:46:22;10.70;99.90
59973;DHT22;55298;-36.624;-64.282;2023-06-22T09:48:54;10.70;99.90
59973;DHT22;55298;-36.624;-64.282;2023-06-22T09:51:27;10.70;99.90
59973;DHT22;55298;-36.624;-64.282;2023-06-22T09:53:55;10.70;99.90
59973;DHT22;55298;-36.624;-64.282;2023-06-22T09:59:25;10.70;99.90
59973;DHT22;55298;-36.624;-64.282;2023-06-22T10:04:56;10.80;99.90
59973;DHT22;55298;-36.624;-64.282;2023-06-22T10:07:27;10.80;99.90
59973;DHT22;55298;-36.624;-64.282;2023-06-22T10:10:02;10.80;99.90
59973;DHT22;55298;-36.624;-64.282;2023-06-22T10:12:31;10.70;99.90
59973;DHT22;55298;-36.624;-64.282;2023-06-22T10:15:02;10.70;99.90
59973;DHT22;55298;-36.624;-64.282;2023-06-22T10:17:35;10.80;99.90
59973;DHT22;55298;-36.624;-64.282;2023-06-22T10:20:31;10.00;99.90
59973;DHT22;55298;-36.624;-64.282;2023-06-22T10:23:24;10.60;99.90
59973;DHT22;55298;-36.624;-64.282;2023-06-22T10:25:53;10.70;99.90
59973;DHT22;55298;-36.624;-64.282;2023-06-22T10:28:26;10.90;99.90
59973;DHT22;55298;-36.624;-64.282;2023-06-22T10:30:53;10.50;99.90
59973;DHT22;55298;-36.624;-64.282;2023-06-22T10:33:21;10.50;99.90
59973;DHT22;55298;-36.624;-64.282;2023-06-22T10:35:49;10.60;99.90
59973;DHT22;55298;-36.624;-64.282;2023-06-22T10:38:19;10.50;99.90
59973;DHT22;55298;-36.624;-64.282;2023-06-22T10:40:48;10.60;99.90
59973;DHT22;55298;-36.624;-64.282;2023-06-22T10:43:16;10.60;99.90
59973;DHT22;55298;-36.624;-64.282;2023-06-22T10:45:45;10.50;99.90
59973;DHT22;55298;-36.624;-64.282;2023-06-22T10:48:14;10.80;99.90
59973;DHT22;55298;-36.624;-64.282;2023-06-22T10:50:42;10.50;99.90
59973;DHT22;55298;-36.624;-64.282;2023-06-22T10:53:14;10.60;99.90
59973;DHT22;55298;-36.624;-64.282;2023-06-22T10:55:45;10.60;99.90
59973;DHT22;55298;-36.624;-64.282;2023-06-22T10:58:14;10.40;99.90
59973;DHT22;55298;-36.624;-64.282;2023-06-22T11:00:46;10.40;99.90
59973;DHT22;55298;-36.624;-64.282;2023-06-22T11:03:16;10.50;99.90
59973;DHT22;55298;-36.624;-64.282;2023-06-22T11:05:45;10.50;99.90
59973;DHT22;55298;-36.624;-64.282;2023-06-22T11:08:17;10.40;99.90
59973;DHT22;55298;-36.624;-64.282;2023-06-22T11:10:47;10.50;99.90
59973;DHT22;55298;-36.624;-64.282;2023-06-22T11:13:20;10.50;99.90
59973;DHT22;55298;-36.624;-64.282;2023-06-22T11:15:48;10.40;99.90
59973;DHT22;55298;-36.624;-64.282;2023-06-22T11:18:16;10.50;99.90
59973;DHT22;55298;-36.624;-64.282;2023-06-22T11:20:45;10.50;99.90
59973;DHT22;55298;-36.624;-64.282;2023-06-22T11:23:19;10.40;99.90
59973;DHT22;55298;-36.624;-64.282;2023-06-22T11:25:47;10.40;99.90
59973;DHT22;55298;-36.624;-64.282;2023-06-22T11:28:18;10.40;99.90
59973;DHT22;55298;-36.624;-64.282;2023-06-22T11:30:46;10.40;99.90
59973;DHT22;55298;-36.624;-64.282;2023-06-22T11:33:15;10.40;99.90
59973;DHT22;55298;-36.624;-64.282;2023-06-22T11:35:48;10.40;99.90
59973;DHT22;55298;-36.624;-64.282;2023-06-22T11:38:22;10.40;99.90
59973;DHT22;55298;-36.624;-64.282;2023-06-22T11:40:54;10.40;99.90
59973;DHT22;55298;-36.624;-64.282;2023-06-22T11:43:22;10.30;99.90
59973;DHT22;55298;-36.624;-64.282;2023-06-22T11:45:50;10.20;99.90
59973;DHT22;55298;-36.624;-64.282;2023-06-22T11:48:19;10.30;99.90
59973;DHT22;55298;-36.624;-64.282;2023-06-22T11:50:48;10.30;99.90
59973;DHT22;55298;-36.624;-64.282;2023-06-22T11:53:15;10.30;99.90
59973;DHT22;55298;-36.624;-64.282;2023-06-22T11:55:45;10.40;99.90
59973;DHT22;55298;-36.624;-64.282;2023-06-22T11:58:13;10.30;99.90
59973;DHT22;55298;-36.624;-64.282;2023-06-22T12:00:41;10.30;99.90
59973;DHT22;55298;-36.624;-64.282;2023-06-22T12:03:10;10.30;99.90
59973;DHT22;55298;-36.624;-64.282;2023-06-22T12:05:40;10.30;99.90
59973;DHT22;55298;-36.624;-64.282;2023-06-22T12:08:33;10.10;99.90
59973;DHT22;55298;-36.624;-64.282;2023-06-22T12:11:24;10.40;99.90
59973;DHT22;55298;-36.624;-64.282;2023-06-22T12:13:54;10.30;99.90
59973;DHT22;55298;-36.624;-64.282;2023-06-22T12:16:22;10.40;99.90
59973;DHT22;55298;-36.624;-64.282;2023-06-22T12:18:55;10.40;99.90
59973;DHT22;55298;-36.624;-64.282;2023-06-22T12:21:23;10.40;99.90
59973;DHT22;55298;-36.624;-64.282;2023-06-22T12:23:56;10.50;99.90
59973;DHT22;55298;-36.624;-64.282;2023-06-22T12:26:33;10.40;99.90
59973;DHT22;55298;-36.624;-64.282;2023-06-22T12:29:07;10.50;99.90
59973;DHT22;55298;-36.624;-64.282;2023-06-22T12:31:37;10.60;99.90
59973;DHT22;55298;-36.624;-64.282;2023-06-22T12:34:07;10.50;99.90
59973;DHT22;55298;-36.624;-64.282;2023-06-22T12:36:39;10.60;99.90
59973;DHT22;55298;-36.624;-64.282;2023-06-22T12:39:07;10.60;99.90
59973;DHT22;55298;-36.624;-64.282;2023-06-22T12:41:35;10.60;99.90
59973;DHT22;55298;-36.624;-64.282;2023-06-22T12:44:03;10.60;99.90
59973;DHT22;55298;-36.624;-64.282;2023-06-22T12:46:36;10.60;99.90
59973;DHT22;55298;-36.624;-64.282;2023-06-22T12:49:06;10.60;99.90
59973;DHT22;55298;-36.624;-64.282;2023-06-22T12:51:40;10.70;99.90
59973;DHT22;55298;-36.624;-64.282;2023-06-22T12:54:10;10.70;99.90
59973;DHT22;55298;-36.624;-64.282;2023-06-22T12:56:39;10.90;99.90
59973;DHT22;55298;-36.624;-64.282;2023-06-22T12:59:10;11.00;99.90
59973;DHT22;55298;-36.624;-64.282;2023-06-22T13:01:39;11.00;99.90
59973;DHT22;55298;-36.624;-64.282;2023-06-22T13:04:07;11.00;99.90
59973;DHT22;55298;-36.624;-64.282;2023-06-22T13:06:38;11.00;99.90
59973;DHT22;55298;-36.624;-64.282;2023-06-22T13:09:05;11.10;99.90
59973;DHT22;55298;-36.624;-64.282;2023-06-22T13:11:34;11.10;99.90
59973;DHT22;55298;-36.624;-64.282;2023-06-22T13:14:10;11.20;99.90
59973;DHT22;55298;-36.624;-64.282;2023-06-22T13:16:38;11.40;99.90
59973;DHT22;55298;-36.624;-64.282;2023-06-22T13:19:07;11.40;99.90
59973;DHT22;55298;-36.624;-64.282;2023-06-22T13:21:42;11.30;99.90
59973;DHT22;55298;-36.624;-64.282;2023-06-22T13:24:10;11.40;99.90
59973;DHT22;55298;-36.624;-64.282;2023-06-22T13:26:38;11.40;99.90
59973;DHT22;55298;-36.624;-64.282;2023-06-22T13:29:12;11.40;99.90
59973;DHT22;55298;-36.624;-64.282;2023-06-22T13:31:49;11.60;99.90
59973;DHT22;55298;-36.624;-64.282;2023-06-22T13:34:21;11.60;99.90
59973;DHT22;55298;-36.624;-64.282;2023-06-22T13:36:49;11.60;99.90
59973;DHT22;55298;-36.624;-64.282;2023-06-22T13:39:18;11.50;99.90
59973;DHT22;55298;-36.624;-64.282;2023-06-22T13:41:46;11.60;99.90
59973;DHT22;55298;-36.624;-64.282;2023-06-22T13:44:13;11.60;99.90
59973;DHT22;55298;-36.624;-64.282;2023-06-22T13:46:41;11.60;99.90
59973;DHT22;55298;-36.624;-64.282;2023-06-22T13:49:09;11.60;99.90
59973;DHT22;55298;-36.624;-64.282;2023-06-22T13:51:41;11.60;99.90
59973;DHT22;55298;-36.624;-64.282;2023-06-22T13:54:09;11.60;99.90
59973;DHT22;55298;-36.624;-64.282;2023-06-22T13:56:37;11.60;99.90
59973;DHT22;55298;-36.624;-64.282;2023-06-22T13:59:05;11.60;99.90
59973;DHT22;55298;-36.624;-64.282;2023-06-22T14:01:37;11.60;99.90
59973;DHT22;55298;-36.624;-64.282;2023-06-22T14:04:06;11.50;99.90
59973;DHT22;55298;-36.624;-64.282;2023-06-22T14:06:34;11.60;99.90
59973;DHT22;55298;-36.624;-64.282;2023-06-22T14:09:02;11.60;99.90
59973;DHT22;55298;-36.624;-64.282;2023-06-22T14:11:29;11.60;99.90
59973;DHT22;55298;-36.624;-64.282;2023-06-22T14:14:01;11.70;99.90
59973;DHT22;55298;-36.624;-64.282;2023-06-22T14:16:29;11.60;99.90
59973;DHT22;55298;-36.624;-64.282;2023-06-22T14:18:57;11.50;99.90
59973;DHT22;55298;-36.624;-64.282;2023-06-22T14:21:33;11.50;99.90
59973;DHT22;55298;-36.624;-64.282;2023-06-22T14:24:01;11.50;99.90
59973;DHT22;55298;-36.624;-64.282;2023-06-22T14:26:37;11.50;99.90
59973;DHT22;55298;-36.624;-64.282;2023-06-22T14:29:06;11.50;99.90
59973;DHT22;55298;-36.624;-64.282;2023-06-22T14:31:33;11.60;99.90
59973;DHT22;55298;-36.624;-64.282;2023-06-22T14:34:01;11.50;99.90
59973;DHT22;55298;-36.624;-64.282;2023-06-22T14:36:37;13.40;99.90
59973;DHT22;55298;-36.624;-64.282;2023-06-22T14:39:08;11.70;99.90
59973;DHT22;55298;-36.624;-64.282;2023-06-22T14:41:36;11.80;99.90
59973;DHT22;55298;-36.624;-64.282;2023-06-22T14:44:03;11.80;99.90
59973;DHT22;55298;-36.624;-64.282;2023-06-22T14:46:55;11.90;99.90
59973;DHT22;55298;-36.624;-64.282;2023-06-22T14:49:24;14.80;99.90
59973;DHT22;55298;-36.624;-64.282;2023-06-22T14:51:53;13.10;99.90
59973;DHT22;55298;-36.624;-64.282;2023-06-22T14:56:52;11.90;99.90
59973;DHT22;55298;-36.624;-64.282;2023-06-22T14:59:24;11.90;99.90
59973;DHT22;55298;-36.624;-64.282;2023-06-22T15:01:54;12.00;99.90
59973;DHT22;55298;-36.624;-64.282;2023-06-22T15:04:26;12.00;99.90
59973;DHT22;55298;-36.624;-64.282;2023-06-22T15:06:59;10.30;99.90
59973;DHT22;55298;-36.624;-64.282;2023-06-22T15:09:28;12.10;99.90
59973;DHT22;55298;-36.624;-64.282;2023-06-22T15:11:57;12.40;99.90
59973;DHT22;55298;-36.624;-64.282;2023-06-22T15:14:28;12.40;99.90
59973;DHT22;55298;-36.624;-64.282;2023-06-22T15:16:57;12.50;99.90
59973;DHT22;55298;-36.624;-64.282;2023-06-22T15:19:25;12.60;99.90
59973;DHT22;55298;-36.624;-64.282;2023-06-22T15:21:53;12.70;99.90
59973;DHT22;55298;-36.624;-64.282;2023-06-22T15:24:21;12.80;99.90
59973;DHT22;55298;-36.624;-64.282;2023-06-22T15:26:49;14.30;99.90
59973;DHT22;55298;-36.624;-64.282;2023-06-22T15:29:18;12.80;99.90
59973;DHT22;55298;-36.624;-64.282;2023-06-22T15:31:48;12.80;99.90
59973;DHT22;55298;-36.624;-64.282;2023-06-22T15:34:17;12.90;99.90
59973;DHT22;55298;-36.624;-64.282;2023-06-22T15:36:45;12.90;99.90
59973;DHT22;55298;-36.624;-64.282;2023-06-22T15:39:13;13.00;99.90
59973;DHT22;55298;-36.624;-64.282;2023-06-22T15:41:42;13.10;99.90
59973;DHT22;55298;-36.624;-64.282;2023-06-22T15:44:10;13.10;99.90
59973;DHT22;55298;-36.624;-64.282;2023-06-22T15:46:37;13.20;99.90
59973;DHT22;55298;-36.624;-64.282;2023-06-22T15:49:05;13.30;99.90
59973;DHT22;55298;-36.624;-64.282;2023-06-22T15:51:33;13.40;99.90
59973;DHT22;55298;-36.624;-64.282;2023-06-22T15:54:01;13.50;99.90